KMHT/MHT METAR and TAF weather

Enter ICAO airport designator
Station Type Date Time Source
KMHT METAR 2021/05/12 01:53 UTC NOAA

KMHT 120153Z 25005KT 10SM FEW100 12/M05 A2994 RMK AO2 SLP153 T01171050


Station Type Date Time Source
KMHT Decoded METAR 2021/05/12 01:53 UTC NOAA

MANCHESTER AIRPORT, NH, United States (KMHT) 42-56N 071-26W 81M
May 11, 2021 - 09:53 PM EDT / 2021.05.12 0153 UTC
Wind: from the WSW (250 degrees) at 6 MPH (5 KT):0
Visibility: 10 mile(s):0
Sky conditions: mostly clear
Temperature: 53.1 F (11.7 C)
Dew Point: 23.0 F (-5.0 C)
Relative Humidity: 30%
Pressure (altimeter): 29.94 in. Hg (1013 hPa)
ob: KMHT 120153Z 25005KT 10SM FEW100 12/M05 A2994 RMK AO2 SLP153 T01171050
cycle: 2

Station Type Date Time Source
KMHT TAF 2021/05/11 19:33 UTC NOAA

TAF
AMD KMHT 111831Z 1119/1218 27010G16KT P6SM BKN070
FM120200 27008KT P6SM FEW080
FM121200 32010G20KT P6SM BKN060

Example: see airport list